sensor_id;sensor_type;location;lat;lon;timestamp;P1;durP1;ratioP1;P2;durP2;ratioP2
22916;SDS011;11624;53.250;7.456;2023-07-13T00:01:13;6.60;;;2.38;;
22916;SDS011;11624;53.250;7.456;2023-07-13T00:03:42;8.57;;;3.05;;
22916;SDS011;11624;53.250;7.456;2023-07-13T00:06:11;10.73;;;2.97;;
22916;SDS011;11624;53.250;7.456;2023-07-13T00:08:39;8.15;;;2.65;;
22916;SDS011;11624;53.250;7.456;2023-07-13T00:11:07;8.30;;;2.55;;
22916;SDS011;11624;53.250;7.456;2023-07-13T00:13:37;8.50;;;2.90;;
22916;SDS011;11624;53.250;7.456;2023-07-13T00:16:08;9.55;;;2.97;;
22916;SDS011;11624;53.250;7.456;2023-07-13T00:18:37;10.07;;;2.88;;
22916;SDS011;11624;53.250;7.456;2023-07-13T00:21:06;8.38;;;2.75;;
22916;SDS011;11624;53.250;7.456;2023-07-13T00:23:35;7.97;;;2.85;;
22916;SDS011;11624;53.250;7.456;2023-07-13T00:26:06;8.38;;;2.88;;
22916;SDS011;11624;53.250;7.456;2023-07-13T00:28:36;12.02;;;3.33;;
22916;SDS011;11624;53.250;7.456;2023-07-13T00:31:08;11.75;;;2.92;;
22916;SDS011;11624;53.250;7.456;2023-07-13T00:33:37;10.40;;;3.13;;
22916;SDS011;11624;53.250;7.456;2023-07-13T00:36:09;11.27;;;3.20;;
22916;SDS011;11624;53.250;7.456;2023-07-13T00:38:38;13.68;;;3.50;;
22916;SDS011;11624;53.250;7.456;2023-07-13T00:41:07;9.90;;;3.45;;
22916;SDS011;11624;53.250;7.456;2023-07-13T00:43:36;9.48;;;3.00;;
22916;SDS011;11624;53.250;7.456;2023-07-13T00:46:25;10.30;;;3.05;;
22916;SDS011;11624;53.250;7.456;2023-07-13T00:48:56;10.90;;;3.17;;
22916;SDS011;11624;53.250;7.456;2023-07-13T00:51:30;9.27;;;2.85;;
22916;SDS011;11624;53.250;7.456;2023-07-13T00:54:03;9.07;;;2.95;;
22916;SDS011;11624;53.250;7.456;2023-07-13T00:56:33;11.30;;;3.30;;
22916;SDS011;11624;53.250;7.456;2023-07-13T00:59:02;10.43;;;3.13;;
22916;SDS011;11624;53.250;7.456;2023-07-13T01:01:35;9.48;;;3.15;;
22916;SDS011;11624;53.250;7.456;2023-07-13T01:04:06;8.10;;;2.45;;
22916;SDS011;11624;53.250;7.456;2023-07-13T01:06:35;11.52;;;3.25;;
22916;SDS011;11624;53.250;7.456;2023-07-13T01:09:04;10.25;;;3.00;;
22916;SDS011;11624;53.250;7.456;2023-07-13T01:11:35;12.95;;;2.85;;
22916;SDS011;11624;53.250;7.456;2023-07-13T01:14:04;13.35;;;2.90;;
22916;SDS011;11624;53.250;7.456;2023-07-13T01:16:33;10.13;;;3.35;;
22916;SDS011;11624;53.250;7.456;2023-07-13T01:19:07;10.57;;;3.03;;
22916;SDS011;11624;53.250;7.456;2023-07-13T01:21:42;8.88;;;2.67;;
22916;SDS011;11624;53.250;7.456;2023-07-13T01:24:11;10.30;;;3.25;;
22916;SDS011;11624;53.250;7.456;2023-07-13T01:26:39;11.85;;;3.03;;
22916;SDS011;11624;53.250;7.456;2023-07-13T01:29:08;10.00;;;2.78;;
22916;SDS011;11624;53.250;7.456;2023-07-13T01:31:38;10.75;;;3.13;;
22916;SDS011;11624;53.250;7.456;2023-07-13T01:34:06;16.92;;;3.13;;
22916;SDS011;11624;53.250;7.456;2023-07-13T01:36:35;13.90;;;2.90;;
22916;SDS011;11624;53.250;7.456;2023-07-13T01:39:06;9.32;;;2.85;;
22916;SDS011;11624;53.250;7.456;2023-07-13T01:41:35;10.50;;;3.05;;
22916;SDS011;11624;53.250;7.456;2023-07-13T01:44:04;8.82;;;3.03;;
22916;SDS011;11624;53.250;7.456;2023-07-13T01:46:32;9.90;;;2.40;;
22916;SDS011;11624;53.250;7.456;2023-07-13T01:49:01;15.18;;;2.97;;
22916;SDS011;11624;53.250;7.456;2023-07-13T01:51:29;12.38;;;3.25;;
22916;SDS011;11624;53.250;7.456;2023-07-13T01:53:58;9.90;;;2.63;;
22916;SDS011;11624;53.250;7.456;2023-07-13T01:56:27;13.98;;;2.80;;
22916;SDS011;11624;53.250;7.456;2023-07-13T01:58:56;11.18;;;2.80;;
22916;SDS011;11624;53.250;7.456;2023-07-13T02:01:24;12.50;;;3.28;;
22916;SDS011;11624;53.250;7.456;2023-07-13T02:03:53;10.63;;;2.63;;
22916;SDS011;11624;53.250;7.456;2023-07-13T02:06:22;8.07;;;2.60;;
22916;SDS011;11624;53.250;7.456;2023-07-13T02:08:50;13.95;;;3.13;;
22916;SDS011;11624;53.250;7.456;2023-07-13T02:11:18;15.88;;;2.97;;
22916;SDS011;11624;53.250;7.456;2023-07-13T02:13:48;14.82;;;2.65;;
22916;SDS011;11624;53.250;7.456;2023-07-13T02:16:17;10.85;;;2.92;;
22916;SDS011;11624;53.250;7.456;2023-07-13T02:18:45;9.68;;;2.58;;
22916;SDS011;11624;53.250;7.456;2023-07-13T02:21:13;10.85;;;2.90;;
22916;SDS011;11624;53.250;7.456;2023-07-13T02:23:42;10.18;;;2.65;;
22916;SDS011;11624;53.250;7.456;2023-07-13T02:26:10;16.17;;;3.35;;
22916;SDS011;11624;53.250;7.456;2023-07-13T02:28:38;12.93;;;3.35;;
22916;SDS011;11624;53.250;7.456;2023-07-13T02:31:10;11.18;;;2.90;;
22916;SDS011;11624;53.250;7.456;2023-07-13T02:33:39;13.18;;;2.85;;
22916;SDS011;11624;53.250;7.456;2023-07-13T02:36:08;14.43;;;3.40;;
22916;SDS011;11624;53.250;7.456;2023-07-13T02:38:37;13.88;;;3.25;;
22916;SDS011;11624;53.250;7.456;2023-07-13T02:41:06;12.00;;;2.80;;
22916;SDS011;11624;53.250;7.456;2023-07-13T02:43:35;9.65;;;2.85;;
22916;SDS011;11624;53.250;7.456;2023-07-13T02:46:08;13.07;;;3.35;;
22916;SDS011;11624;53.250;7.456;2023-07-13T02:48:37;12.98;;;2.90;;
22916;SDS011;11624;53.250;7.456;2023-07-13T02:51:06;12.52;;;2.85;;
22916;SDS011;11624;53.250;7.456;2023-07-13T02:53:35;11.73;;;2.95;;
22916;SDS011;11624;53.250;7.456;2023-07-13T02:56:04;11.27;;;3.00;;
22916;SDS011;11624;53.250;7.456;2023-07-13T02:58:34;10.73;;;2.85;;
22916;SDS011;11624;53.250;7.456;2023-07-13T03:01:06;8.75;;;2.70;;
22916;SDS011;11624;53.250;7.456;2023-07-13T03:03:37;14.20;;;4.05;;
22916;SDS011;11624;53.250;7.456;2023-07-13T03:06:06;12.85;;;3.08;;
22916;SDS011;11624;53.250;7.456;2023-07-13T03:08:44;12.00;;;3.13;;
22916;SDS011;11624;53.250;7.456;2023-07-13T03:11:13;12.95;;;3.20;;
22916;SDS011;11624;53.250;7.456;2023-07-13T03:13:46;13.60;;;2.92;;
22916;SDS011;11624;53.250;7.456;2023-07-13T03:16:15;13.45;;;3.15;;
22916;SDS011;11624;53.250;7.456;2023-07-13T03:18:49;11.45;;;3.17;;
22916;SDS011;11624;53.250;7.456;2023-07-13T03:21:17;12.65;;;3.33;;
22916;SDS011;11624;53.250;7.456;2023-07-13T03:23:46;17.13;;;3.58;;
22916;SDS011;11624;53.250;7.456;2023-07-13T03:26:16;13.30;;;3.35;;
22916;SDS011;11624;53.250;7.456;2023-07-13T03:28:47;17.25;;;3.55;;
22916;SDS011;11624;53.250;7.456;2023-07-13T03:31:21;9.35;;;3.30;;
22916;SDS011;11624;53.250;7.456;2023-07-13T03:33:52;13.73;;;3.13;;
22916;SDS011;11624;53.250;7.456;2023-07-13T03:36:21;14.55;;;2.97;;
22916;SDS011;11624;53.250;7.456;2023-07-13T03:38:54;11.18;;;3.03;;
22916;SDS011;11624;53.250;7.456;2023-07-13T03:41:43;10.00;;;3.17;;
22916;SDS011;11624;53.250;7.456;2023-07-13T03:44:12;12.52;;;3.35;;
22916;SDS011;11624;53.250;7.456;2023-07-13T03:46:41;11.70;;;2.78;;
22916;SDS011;11624;53.250;7.456;2023-07-13T03:49:11;13.43;;;3.40;;
22916;SDS011;11624;53.250;7.456;2023-07-13T03:51:39;18.27;;;3.53;;
22916;SDS011;11624;53.250;7.456;2023-07-13T03:54:08;17.15;;;3.53;;
22916;SDS011;11624;53.250;7.456;2023-07-13T03:56:36;11.75;;;3.58;;
22916;SDS011;11624;53.250;7.456;2023-07-13T03:59:06;13.57;;;3.42;;
22916;SDS011;11624;53.250;7.456;2023-07-13T04:01:35;21.95;;;3.97;;
22916;SDS011;11624;53.250;7.456;2023-07-13T04:04:03;15.23;;;3.63;;
22916;SDS011;11624;53.250;7.456;2023-07-13T04:06:33;17.92;;;3.40;;
22916;SDS011;11624;53.250;7.456;2023-07-13T04:09:02;15.23;;;3.53;;
22916;SDS011;11624;53.250;7.456;2023-07-13T04:11:33;19.80;;;3.65;;
22916;SDS011;11624;53.250;7.456;2023-07-13T04:14:03;12.80;;;3.28;;
22916;SDS011;11624;53.250;7.456;2023-07-13T04:16:33;12.93;;;3.40;;
22916;SDS011;11624;53.250;7.456;2023-07-13T04:19:01;15.02;;;3.60;;
22916;SDS011;11624;53.250;7.456;2023-07-13T04:21:30;16.38;;;4.00;;
22916;SDS011;11624;53.250;7.456;2023-07-13T04:24:00;13.63;;;3.53;;
22916;SDS011;11624;53.250;7.456;2023-07-13T04:26:29;17.92;;;3.70;;
22916;SDS011;11624;53.250;7.456;2023-07-13T04:28:58;13.65;;;3.15;;
22916;SDS011;11624;53.250;7.456;2023-07-13T04:31:26;16.25;;;3.92;;
22916;SDS011;11624;53.250;7.456;2023-07-13T04:33:55;11.85;;;3.42;;
22916;SDS011;11624;53.250;7.456;2023-07-13T04:36:23;12.80;;;3.47;;
22916;SDS011;11624;53.250;7.456;2023-07-13T04:38:53;17.40;;;3.33;;
22916;SDS011;11624;53.250;7.456;2023-07-13T04:41:23;18.60;;;3.83;;
22916;SDS011;11624;53.250;7.456;2023-07-13T04:43:51;10.95;;;3.67;;
22916;SDS011;11624;53.250;7.456;2023-07-13T04:46:22;13.48;;;3.47;;
22916;SDS011;11624;53.250;7.456;2023-07-13T04:48:51;17.40;;;3.65;;
22916;SDS011;11624;53.250;7.456;2023-07-13T04:51:20;18.00;;;4.40;;
22916;SDS011;11624;53.250;7.456;2023-07-13T04:53:48;13.75;;;3.80;;
22916;SDS011;11624;53.250;7.456;2023-07-13T04:56:25;18.92;;;3.47;;
22916;SDS011;11624;53.250;7.456;2023-07-13T04:58:53;17.58;;;3.38;;
22916;SDS011;11624;53.250;7.456;2023-07-13T05:01:22;13.82;;;3.75;;
22916;SDS011;11624;53.250;7.456;2023-07-13T05:03:50;15.55;;;3.60;;
22916;SDS011;11624;53.250;7.456;2023-07-13T05:08:56;10.45;;;3.65;;
22916;SDS011;11624;53.250;7.456;2023-07-13T05:11:25;14.77;;;3.78;;
22916;SDS011;11624;53.250;7.456;2023-07-13T05:13:53;19.63;;;4.05;;
22916;SDS011;11624;53.250;7.456;2023-07-13T05:16:22;13.27;;;3.70;;
22916;SDS011;11624;53.250;7.456;2023-07-13T05:18:52;14.90;;;3.95;;
22916;SDS011;11624;53.250;7.456;2023-07-13T05:21:20;16.13;;;3.60;;
22916;SDS011;11624;53.250;7.456;2023-07-13T05:23:48;16.15;;;4.40;;
22916;SDS011;11624;53.250;7.456;2023-07-13T05:26:17;12.55;;;3.63;;
22916;SDS011;11624;53.250;7.456;2023-07-13T05:28:48;13.98;;;4.18;;
22916;SDS011;11624;53.250;7.456;2023-07-13T05:31:16;13.77;;;4.05;;
22916;SDS011;11624;53.250;7.456;2023-07-13T05:33:44;15.27;;;3.90;;
22916;SDS011;11624;53.250;7.456;2023-07-13T05:36:12;17.15;;;4.05;;
22916;SDS011;11624;53.250;7.456;2023-07-13T05:38:40;11.98;;;3.30;;
22916;SDS011;11624;53.250;7.456;2023-07-13T05:41:08;14.65;;;3.60;;
22916;SDS011;11624;53.250;7.456;2023-07-13T05:43:37;13.98;;;4.00;;
22916;SDS011;11624;53.250;7.456;2023-07-13T05:46:06;14.18;;;3.90;;
22916;SDS011;11624;53.250;7.456;2023-07-13T05:48:35;14.48;;;3.97;;
22916;SDS011;11624;53.250;7.456;2023-07-13T05:51:03;10.70;;;3.72;;
22916;SDS011;11624;53.250;7.456;2023-07-13T05:53:31;17.45;;;4.35;;
22916;SDS011;11624;53.250;7.456;2023-07-13T05:55:59;15.02;;;4.15;;
22916;SDS011;11624;53.250;7.456;2023-07-13T05:58:28;16.30;;;3.95;;
22916;SDS011;11624;53.250;7.456;2023-07-13T06:01:00;15.35;;;3.65;;
22916;SDS011;11624;53.250;7.456;2023-07-13T06:03:31;14.27;;;3.92;;
22916;SDS011;11624;53.250;7.456;2023-07-13T06:06:00;19.40;;;4.10;;
22916;SDS011;11624;53.250;7.456;2023-07-13T06:08:29;17.17;;;4.00;;
22916;SDS011;11624;53.250;7.456;2023-07-13T06:11:01;15.95;;;4.22;;
22916;SDS011;11624;53.250;7.456;2023-07-13T06:13:31;13.70;;;3.70;;
22916;SDS011;11624;53.250;7.456;2023-07-13T06:16:00;16.52;;;4.30;;
22916;SDS011;11624;53.250;7.456;2023-07-13T06:18:32;15.70;;;4.57;;
22916;SDS011;11624;53.250;7.456;2023-07-13T06:21:05;13.45;;;3.67;;
22916;SDS011;11624;53.250;7.456;2023-07-13T06:23:34;13.35;;;3.75;;
22916;SDS011;11624;53.250;7.456;2023-07-13T06:26:03;13.10;;;4.32;;
22916;SDS011;11624;53.250;7.456;2023-07-13T06:28:31;14.48;;;4.55;;
22916;SDS011;11624;53.250;7.456;2023-07-13T06:31:00;20.77;;;3.92;;
22916;SDS011;11624;53.250;7.456;2023-07-13T06:33:28;10.63;;;3.45;;
22916;SDS011;11624;53.250;7.456;2023-07-13T06:35:58;16.85;;;3.90;;
22916;SDS011;11624;53.250;7.456;2023-07-13T06:38:26;11.85;;;3.83;;
22916;SDS011;11624;53.250;7.456;2023-07-13T06:40:54;13.77;;;3.63;;
22916;SDS011;11624;53.250;7.456;2023-07-13T06:43:22;13.68;;;3.78;;
22916;SDS011;11624;53.250;7.456;2023-07-13T06:45:51;12.52;;;3.47;;
22916;SDS011;11624;53.250;7.456;2023-07-13T06:48:21;16.35;;;3.55;;
22916;SDS011;11624;53.250;7.456;2023-07-13T06:50:50;13.60;;;3.50;;
22916;SDS011;11624;53.250;7.456;2023-07-13T06:53:21;14.80;;;3.90;;
22916;SDS011;11624;53.250;7.456;2023-07-13T06:55:50;14.05;;;3.40;;
22916;SDS011;11624;53.250;7.456;2023-07-13T06:58:18;11.80;;;3.28;;
22916;SDS011;11624;53.250;7.456;2023-07-13T07:00:49;13.88;;;3.08;;
22916;SDS011;11624;53.250;7.456;2023-07-13T07:03:18;10.52;;;2.90;;
22916;SDS011;11624;53.250;7.456;2023-07-13T07:05:46;9.95;;;3.22;;
22916;SDS011;11624;53.250;7.456;2023-07-13T07:08:14;12.25;;;3.10;;
22916;SDS011;11624;53.250;7.456;2023-07-13T07:10:44;12.35;;;3.22;;
22916;SDS011;11624;53.250;7.456;2023-07-13T07:13:13;14.43;;;3.55;;
22916;SDS011;11624;53.250;7.456;2023-07-13T07:15:41;12.88;;;3.45;;
22916;SDS011;11624;53.250;7.456;2023-07-13T07:18:09;13.88;;;3.35;;
22916;SDS011;11624;53.250;7.456;2023-07-13T07:20:37;10.68;;;3.03;;
22916;SDS011;11624;53.250;7.456;2023-07-13T07:23:05;12.25;;;4.00;;
22916;SDS011;11624;53.250;7.456;2023-07-13T07:25:33;12.23;;;3.10;;
22916;SDS011;11624;53.250;7.456;2023-07-13T07:28:05;13.65;;;3.60;;
22916;SDS011;11624;53.250;7.456;2023-07-13T07:30:36;10.75;;;2.97;;
22916;SDS011;11624;53.250;7.456;2023-07-13T07:33:07;14.77;;;3.78;;
22916;SDS011;11624;53.250;7.456;2023-07-13T07:35:36;11.70;;;3.25;;
22916;SDS011;11624;53.250;7.456;2023-07-13T07:38:24;9.60;;;3.03;;
22916;SDS011;11624;53.250;7.456;2023-07-13T07:40:53;7.95;;;2.80;;
22916;SDS011;11624;53.250;7.456;2023-07-13T07:43:25;10.63;;;2.80;;
22916;SDS011;11624;53.250;7.456;2023-07-13T07:45:53;12.18;;;3.08;;
22916;SDS011;11624;53.250;7.456;2023-07-13T07:48:21;10.48;;;3.15;;
22916;SDS011;11624;53.250;7.456;2023-07-13T07:50:49;11.50;;;3.00;;
22916;SDS011;11624;53.250;7.456;2023-07-13T07:53:17;8.98;;;2.60;;
22916;SDS011;11624;53.250;7.456;2023-07-13T07:55:45;10.68;;;2.70;;
22916;SDS011;11624;53.250;7.456;2023-07-13T07:58:17;9.68;;;3.00;;
22916;SDS011;11624;53.250;7.456;2023-07-13T08:01:06;11.23;;;2.33;;
22916;SDS011;11624;53.250;7.456;2023-07-13T08:03:37;11.75;;;2.50;;
22916;SDS011;11624;53.250;7.456;2023-07-13T08:06:08;9.70;;;3.33;;
22916;SDS011;11624;53.250;7.456;2023-07-13T08:08:39;12.18;;;2.80;;
22916;SDS011;11624;53.250;7.456;2023-07-13T08:11:08;9.98;;;2.70;;
22916;SDS011;11624;53.250;7.456;2023-07-13T08:13:40;11.07;;;2.95;;
22916;SDS011;11624;53.250;7.456;2023-07-13T08:16:09;9.02;;;2.40;;
22916;SDS011;11624;53.250;7.456;2023-07-13T08:18:38;10.95;;;2.33;;
22916;SDS011;11624;53.250;7.456;2023-07-13T08:21:07;9.75;;;2.40;;
22916;SDS011;11624;53.250;7.456;2023-07-13T08:23:36;9.00;;;2.60;;
22916;SDS011;11624;53.250;7.456;2023-07-13T08:26:05;9.77;;;2.53;;
22916;SDS011;11624;53.250;7.456;2023-07-13T08:28:34;12.38;;;2.58;;
22916;SDS011;11624;53.250;7.456;2023-07-13T08:31:02;6.32;;;2.42;;
22916;SDS011;11624;53.250;7.456;2023-07-13T08:33:33;5.15;;;2.08;;
22916;SDS011;11624;53.250;7.456;2023-07-13T08:36:02;7.07;;;2.15;;
22916;SDS011;11624;53.250;7.456;2023-07-13T08:38:31;11.98;;;2.67;;
22916;SDS011;11624;53.250;7.456;2023-07-13T08:40:59;7.05;;;2.45;;
22916;SDS011;11624;53.250;7.456;2023-07-13T08:43:30;9.68;;;2.45;;
22916;SDS011;11624;53.250;7.456;2023-07-13T08:46:04;7.13;;;2.50;;
22916;SDS011;11624;53.250;7.456;2023-07-13T08:48:39;8.23;;;2.58;;
22916;SDS011;11624;53.250;7.456;2023-07-13T08:51:14;13.82;;;2.88;;
22916;SDS011;11624;53.250;7.456;2023-07-13T08:53:56;11.20;;;2.38;;
22916;SDS011;11624;53.250;7.456;2023-07-13T08:56:27;6.63;;;2.00;;
22916;SDS011;11624;53.250;7.456;2023-07-13T08:58:58;6.78;;;2.33;;
22916;SDS011;11624;53.250;7.456;2023-07-13T09:01:36;10.80;;;2.55;;
22916;SDS011;11624;53.250;7.456;2023-07-13T09:04:18;9.95;;;2.70;;
22916;SDS011;11624;53.250;7.456;2023-07-13T09:06:55;9.77;;;2.78;;
22916;SDS011;11624;53.250;7.456;2023-07-13T09:09:32;10.70;;;2.85;;
22916;SDS011;11624;53.250;7.456;2023-07-13T09:12:08;8.65;;;2.58;;
22916;SDS011;11624;53.250;7.456;2023-07-13T09:14:42;12.70;;;2.75;;
22916;SDS011;11624;53.250;7.456;2023-07-13T09:17:15;9.00;;;2.70;;
22916;SDS011;11624;53.250;7.456;2023-07-13T09:19:48;10.73;;;3.42;;
22916;SDS011;11624;53.250;7.456;2023-07-13T09:22:22;14.30;;;3.58;;
22916;SDS011;11624;53.250;7.456;2023-07-13T09:24:58;14.35;;;4.10;;
22916;SDS011;11624;53.250;7.456;2023-07-13T09:27:33;13.38;;;3.97;;
22916;SDS011;11624;53.250;7.456;2023-07-13T09:30:17;11.68;;;4.28;;
22916;SDS011;11624;53.250;7.456;2023-07-13T09:32:53;14.35;;;4.43;;
22916;SDS011;11624;53.250;7.456;2023-07-13T09:35:25;11.35;;;4.30;;
22916;SDS011;11624;53.250;7.456;2023-07-13T09:37:59;14.55;;;4.25;;
22916;SDS011;11624;53.250;7.456;2023-07-13T09:40:36;11.02;;;3.22;;
22916;SDS011;11624;53.250;7.456;2023-07-13T09:43:12;11.13;;;3.22;;
22916;SDS011;11624;53.250;7.456;2023-07-13T09:45:45;7.45;;;2.97;;
22916;SDS011;11624;53.250;7.456;2023-07-13T09:48:14;10.35;;;3.13;;
22916;SDS011;11624;53.250;7.456;2023-07-13T09:50:45;11.40;;;3.78;;
22916;SDS011;11624;53.250;7.456;2023-07-13T09:53:14;7.95;;;2.80;;
22916;SDS011;11624;53.250;7.456;2023-07-13T09:55:43;8.43;;;2.70;;
22916;SDS011;11624;53.250;7.456;2023-07-13T09:58:18;9.45;;;2.78;;
22916;SDS011;11624;53.250;7.456;2023-07-13T10:00:55;7.50;;;2.78;;
22916;SDS011;11624;53.250;7.456;2023-07-13T10:03:26;11.07;;;2.95;;
22916;SDS011;11624;53.250;7.456;2023-07-13T10:06:00;7.85;;;2.58;;
22916;SDS011;11624;53.250;7.456;2023-07-13T10:08:38;10.43;;;3.42;;
22916;SDS011;11624;53.250;7.456;2023-07-13T10:11:09;10.98;;;3.38;;
22916;SDS011;11624;53.250;7.456;2023-07-13T10:13:40;9.15;;;3.25;;
22916;SDS011;11624;53.250;7.456;2023-07-13T10:16:11;7.90;;;3.00;;
22916;SDS011;11624;53.250;7.456;2023-07-13T10:18:42;6.05;;;2.22;;
22916;SDS011;11624;53.250;7.456;2023-07-13T10:21:16;6.57;;;2.20;;
22916;SDS011;11624;53.250;7.456;2023-07-13T10:24:03;8.27;;;2.17;;
22916;SDS011;11624;53.250;7.456;2023-07-13T10:26:37;6.90;;;2.30;;
22916;SDS011;11624;53.250;7.456;2023-07-13T10:29:13;5.30;;;1.85;;
22916;SDS011;11624;53.250;7.456;2023-07-13T10:31:44;6.07;;;2.20;;
22916;SDS011;11624;53.250;7.456;2023-07-13T10:34:13;6.97;;;2.40;;
22916;SDS011;11624;53.250;7.456;2023-07-13T10:36:43;5.65;;;2.17;;
22916;SDS011;11624;53.250;7.456;2023-07-13T10:39:15;5.30;;;2.47;;
22916;SDS011;11624;53.250;7.456;2023-07-13T10:41:46;7.93;;;2.53;;
22916;SDS011;11624;53.250;7.456;2023-07-13T10:44:19;6.85;;;2.35;;
22916;SDS011;11624;53.250;7.456;2023-07-13T10:46:53;13.57;;;2.80;;
22916;SDS011;11624;53.250;7.456;2023-07-13T10:49:23;6.57;;;2.60;;
22916;SDS011;11624;53.250;7.456;2023-07-13T10:51:55;6.53;;;2.67;;
22916;SDS011;11624;53.250;7.456;2023-07-13T10:54:26;6.18;;;2.40;;
22916;SDS011;11624;53.250;7.456;2023-07-13T10:57:13;8.30;;;2.60;;
22916;SDS011;11624;53.250;7.456;2023-07-13T10:59:46;9.23;;;2.80;;
22916;SDS011;11624;53.250;7.456;2023-07-13T11:02:21;6.13;;;2.50;;
22916;SDS011;11624;53.250;7.456;2023-07-13T11:04:53;10.20;;;3.03;;
22916;SDS011;11624;53.250;7.456;2023-07-13T11:07:25;8.55;;;3.13;;
22916;SDS011;11624;53.250;7.456;2023-07-13T11:09:55;10.38;;;3.30;;
22916;SDS011;11624;53.250;7.456;2023-07-13T11:12:29;6.88;;;2.55;;
22916;SDS011;11624;53.250;7.456;2023-07-13T11:15:27;10.82;;;3.20;;
22916;SDS011;11624;53.250;7.456;2023-07-13T11:18:02;7.53;;;2.72;;
22916;SDS011;11624;53.250;7.456;2023-07-13T11:20:32;8.15;;;3.13;;
22916;SDS011;11624;53.250;7.456;2023-07-13T11:23:18;8.18;;;2.75;;
22916;SDS011;11624;53.250;7.456;2023-07-13T11:25:48;9.52;;;2.95;;
22916;SDS011;11624;53.250;7.456;2023-07-13T11:28:17;5.68;;;2.50;;
22916;SDS011;11624;53.250;7.456;2023-07-13T11:30:59;6.53;;;2.42;;
22916;SDS011;11624;53.250;7.456;2023-07-13T11:33:56;3.40;;;1.60;;
22916;SDS011;11624;53.250;7.456;2023-07-13T11:36:29;4.15;;;0.82;;
22916;SDS011;11624;53.250;7.456;2023-07-13T11:39:05;2.60;;;1.23;;
22916;SDS011;11624;53.250;7.456;2023-07-13T11:41:45;2.22;;;1.05;;
22916;SDS011;11624;53.250;7.456;2023-07-13T11:44:20;3.35;;;1.10;;
22916;SDS011;11624;53.250;7.456;2023-07-13T11:46:50;4.72;;;1.70;;
22916;SDS011;11624;53.250;7.456;2023-07-13T11:49:22;5.82;;;1.55;;
22916;SDS011;11624;53.250;7.456;2023-07-13T11:51:51;5.72;;;1.50;;
22916;SDS011;11624;53.250;7.456;2023-07-13T11:54:26;4.28;;;1.80;;
22916;SDS011;11624;53.250;7.456;2023-07-13T11:56:58;3.63;;;1.58;;
22916;SDS011;11624;53.250;7.456;2023-07-13T11:59:30;3.05;;;1.70;;
22916;SDS011;11624;53.250;7.456;2023-07-13T12:01:59;4.63;;;1.85;;
22916;SDS011;11624;53.250;7.456;2023-07-13T12:04:29;4.95;;;1.77;;
22916;SDS011;11624;53.250;7.456;2023-07-13T12:07:04;7.03;;;2.10;;
22916;SDS011;11624;53.250;7.456;2023-07-13T12:09:34;6.00;;;2.00;;
22916;SDS011;11624;53.250;7.456;2023-07-13T12:12:08;5.35;;;2.00;;
22916;SDS011;11624;53.250;7.456;2023-07-13T12:14:39;4.75;;;1.88;;
22916;SDS011;11624;53.250;7.456;2023-07-13T12:17:09;6.22;;;2.33;;
22916;SDS011;11624;53.250;7.456;2023-07-13T12:19:43;4.90;;;2.10;;
22916;SDS011;11624;53.250;7.456;2023-07-13T12:22:13;6.72;;;2.40;;
22916;SDS011;11624;53.250;7.456;2023-07-13T12:24:44;9.43;;;3.03;;
22916;SDS011;11624;53.250;7.456;2023-07-13T12:27:18;7.78;;;2.60;;
22916;SDS011;11624;53.250;7.456;2023-07-13T12:29:50;6.95;;;2.50;;
22916;SDS011;11624;53.250;7.456;2023-07-13T12:32:21;6.80;;;2.22;;
22916;SDS011;11624;53.250;7.456;2023-07-13T12:34:52;7.03;;;2.65;;
22916;SDS011;11624;53.250;7.456;2023-07-13T12:37:22;7.43;;;2.65;;
22916;SDS011;11624;53.250;7.456;2023-07-13T12:39:53;6.68;;;2.50;;
22916;SDS011;11624;53.250;7.456;2023-07-13T12:42:22;8.05;;;2.78;;
22916;SDS011;11624;53.250;7.456;2023-07-13T12:44:54;8.43;;;2.63;;
22916;SDS011;11624;53.250;7.456;2023-07-13T12:47:25;10.70;;;2.88;;
22916;SDS011;11624;53.250;7.456;2023-07-13T12:49:54;9.55;;;2.67;;
22916;SDS011;11624;53.250;7.456;2023-07-13T12:52:27;7.97;;;2.38;;
22916;SDS011;11624;53.250;7.456;2023-07-13T12:55:02;7.57;;;2.03;;
22916;SDS011;11624;53.250;7.456;2023-07-13T12:57:39;5.90;;;2.03;;
22916;SDS011;11624;53.250;7.456;2023-07-13T13:00:19;5.43;;;1.90;;
22916;SDS011;11624;53.250;7.456;2023-07-13T13:02:52;10.07;;;2.15;;
22916;SDS011;11624;53.250;7.456;2023-07-13T13:05:42;9.43;;;2.42;;
22916;SDS011;11624;53.250;7.456;2023-07-13T13:08:11;7.72;;;2.10;;
22916;SDS011;11624;53.250;7.456;2023-07-13T13:10:42;8.95;;;2.45;;
22916;SDS011;11624;53.250;7.456;2023-07-13T13:13:11;6.00;;;2.50;;
22916;SDS011;11624;53.250;7.456;2023-07-13T13:15:40;7.85;;;2.50;;
22916;SDS011;11624;53.250;7.456;2023-07-13T13:18:13;7.80;;;2.20;;
22916;SDS011;11624;53.250;7.456;2023-07-13T13:20:44;7.32;;;2.38;;
22916;SDS011;11624;53.250;7.456;2023-07-13T13:23:13;7.82;;;2.10;;
22916;SDS011;11624;53.250;7.456;2023-07-13T13:25:45;10.00;;;2.42;;
22916;SDS011;11624;53.250;7.456;2023-07-13T13:28:16;8.38;;;2.22;;
22916;SDS011;11624;53.250;7.456;2023-07-13T13:30:46;11.32;;;2.42;;
22916;SDS011;11624;53.250;7.456;2023-07-13T13:33:17;5.70;;;2.10;;
22916;SDS011;11624;53.250;7.456;2023-07-13T13:35:47;6.68;;;2.10;;
22916;SDS011;11624;53.250;7.456;2023-07-13T13:38:16;6.15;;;1.98;;
22916;SDS011;11624;53.250;7.456;2023-07-13T13:40:49;5.40;;;1.80;;
22916;SDS011;11624;53.250;7.456;2023-07-13T13:43:17;6.93;;;2.13;;
22916;SDS011;11624;53.250;7.456;2023-07-13T13:45:46;4.57;;;1.95;;
22916;SDS011;11624;53.250;7.456;2023-07-13T13:48:15;4.82;;;1.80;;
22916;SDS011;11624;53.250;7.456;2023-07-13T13:50:46;5.93;;;1.98;;
22916;SDS011;11624;53.250;7.456;2023-07-13T13:53:15;7.38;;;1.58;;
22916;SDS011;11624;53.250;7.456;2023-07-13T13:55:43;8.95;;;1.95;;
22916;SDS011;11624;53.250;7.456;2023-07-13T13:58:14;8.23;;;1.98;;
22916;SDS011;11624;53.250;7.456;2023-07-13T14:00:42;6.22;;;2.13;;
22916;SDS011;11624;53.250;7.456;2023-07-13T14:03:14;6.90;;;1.98;;
22916;SDS011;11624;53.250;7.456;2023-07-13T14:05:43;7.80;;;2.13;;
22916;SDS011;11624;53.250;7.456;2023-07-13T14:08:14;9.48;;;2.08;;
22916;SDS011;11624;53.250;7.456;2023-07-13T14:10:42;7.38;;;1.77;;
22916;SDS011;11624;53.250;7.456;2023-07-13T14:13:15;6.03;;;1.40;;
22916;SDS011;11624;53.250;7.456;2023-07-13T14:15:46;4.80;;;1.25;;
22916;SDS011;11624;53.250;7.456;2023-07-13T14:18:14;3.20;;;1.50;;
22916;SDS011;11624;53.250;7.456;2023-07-13T14:20:44;4.93;;;1.45;;
22916;SDS011;11624;53.250;7.456;2023-07-13T14:23:14;6.03;;;1.98;;
22916;SDS011;11624;53.250;7.456;2023-07-13T14:25:45;7.10;;;2.40;;
22916;SDS011;11624;53.250;7.456;2023-07-13T14:28:23;9.07;;;2.25;;
22916;SDS011;11624;53.250;7.456;2023-07-13T14:30:52;6.80;;;1.90;;
22916;SDS011;11624;53.250;7.456;2023-07-13T14:33:22;6.47;;;2.15;;
22916;SDS011;11624;53.250;7.456;2023-07-13T14:35:50;4.72;;;1.58;;
22916;SDS011;11624;53.250;7.456;2023-07-13T14:38:19;9.27;;;2.17;;
22916;SDS011;11624;53.250;7.456;2023-07-13T14:40:48;8.93;;;2.10;;
22916;SDS011;11624;53.250;7.456;2023-07-13T14:43:17;10.75;;;2.03;;
22916;SDS011;11624;53.250;7.456;2023-07-13T14:45:47;7.25;;;2.30;;
22916;SDS011;11624;53.250;7.456;2023-07-13T14:48:18;9.65;;;2.03;;
22916;SDS011;11624;53.250;7.456;2023-07-13T14:50:50;8.70;;;2.20;;
22916;SDS011;11624;53.250;7.456;2023-07-13T14:53:21;8.85;;;2.47;;
22916;SDS011;11624;53.250;7.456;2023-07-13T14:55:49;10.50;;;2.85;;
22916;SDS011;11624;53.250;7.456;2023-07-13T14:58:18;9.35;;;2.28;;
22916;SDS011;11624;53.250;7.456;2023-07-13T15:00:48;8.15;;;2.33;;
22916;SDS011;11624;53.250;7.456;2023-07-13T15:03:17;12.07;;;2.65;;
22916;SDS011;11624;53.250;7.456;2023-07-13T15:05:49;9.32;;;2.22;;